Home > Products > Valid Products > TAF

000
FTUS46 KMFR 222328
TAFLMT
TAF
KLMT 222328Z 2300/2324 31012KT P6SM -SHRA SCT035 OVC045
     FM230400 30005KT P6SM FEW015 SCT025 OVC035
     FM231700 34008KT P6SM BKN050=



000
FTUS46 KMFR 222328
TAFOTH
TAF
KOTH 222328Z 2300/2324 34009KT P6SM SCT010 BKN015 OVC025
     FM230400 32005KT P6SM BKN007 OVC015
     FM231800 34012G20KT P6SM SCT015 OVC025=



000
FTUS46 KMFR 222328
TAFMFR
TAF
KMFR 222328Z 2300/2324 36008KT P6SM SCT035 BKN050
     FM230400 VRB03KT P6SM SCT015 BKN025
     FM231600 31005KT P6SM SCT035=



000
FTUS46 KMFR 222328
TAFRBG
TAF
KRBG 222328Z 2300/2324 34007KT P6SM SCT025 OVC040
     FM230800 36005KT P6SM OVC015
     FM231800 36007KT P6SM SCT020 BKN040=



000
FTUS46 KMFR 222328
TAFMFR
TAF
KMFR 222328Z 2300/2324 36008KT P6SM SCT035 BKN050
     FM230400 VRB03KT P6SM SCT015 BKN025
     FM231600 31005KT P6SM SCT035=



000
FTUS46 KMFR 222328
TAFOTH
TAF
KOTH 222328Z 2300/2324 34009KT P6SM SCT010 BKN015 OVC025
     FM230400 32005KT P6SM BKN007 OVC015
     FM231800 34012G20KT P6SM SCT015 OVC025=



000
FTUS46 KMFR 222328
TAFRBG
TAF
KRBG 222328Z 2300/2324 34007KT P6SM SCT025 OVC040
     FM230800 36005KT P6SM OVC015
     FM231800 36007KT P6SM SCT020 BKN040=



000
FTUS46 KMFR 222328
TAFLMT
TAF
KLMT 222328Z 2300/2324 31012KT P6SM -SHRA SCT035 OVC045
     FM230400 30005KT P6SM FEW015 SCT025 OVC035
     FM231700 34008KT P6SM BKN050=



000
FTUS46 KMFR 222152 AAA
TAFRBG
TAF AMD
KRBG 222152Z 2222/2318 35005KT P6SM VCSH SCT025 OVC035
     FM230900 35003KT P6SM OVC015=



000
FTUS46 KMFR 222059 AAA
TAFOTH
TAF AMD
KOTH 222059Z 2221/2318 34007KT P6SM SCT015 OVC030
      TEMPO 2221/2222 SCT008 BKN015 OVC030
     FM222200 33012KT P6SM SCT010 OVC025
     FM230400 35006KT P6SM BKN007 OVC020=



000
FTUS46 KMFR 221748
TAFRBG
TAF
KRBG 221748Z 2218/2318 35005KT P6SM VCSH SCT015 BKN025 OVC035
     FM230900 35003KT P6SM OVC015=



000
FTUS46 KMFR 221748
TAFMFR
TAF
KMFR 221748Z 2218/2318 29003KT P6SM -SHRA SCT020 OVC040
     FM222100 33009KT P6SM VCSH SCT035 OVC050
     FM230300 VRB03KT P6SM SCT015 OVC025=



000
FTUS46 KMFR 221748
TAFRBG
TAF
KRBG 221748Z 2218/2318 35005KT P6SM VCSH SCT015 BKN025 OVC035
     FM230900 35003KT P6SM OVC015=



000
FTUS46 KMFR 221748
TAFLMT
TAF
KLMT 221748Z 2218/2318 30008KT P6SM -RA BKN020 OVC035
     FM222100 29012KT P6SM -SHRA OVC035
     FM230400 30005KT P6SM FEW015 SCT025 OVC035=



000
FTUS46 KMFR 221748
TAFOTH
TAF
KOTH 221748Z 2218/2318 34007KT P6SM BKN007 OVC020
      TEMPO 2218/2221 SCT008 OVC020
     FM222100 33012KT P6SM SCT010 OVC025
     FM230400 35006KT P6SM BKN007 OVC020=



000
FTUS46 KMFR 221748
TAFLMT
TAF
KLMT 221748Z 2218/2318 30008KT P6SM -RA BKN020 OVC035
     FM222100 29012KT P6SM -SHRA OVC035
     FM230400 30005KT P6SM FEW015 SCT025 OVC035=



000
FTUS46 KMFR 221748
TAFOTH
TAF
KOTH 221748Z 2218/2318 34007KT P6SM BKN007 OVC020
      TEMPO 2218/2221 SCT008 OVC020
     FM222100 33012KT P6SM SCT010 OVC025
     FM230400 35006KT P6SM BKN007 OVC020=



000
FTUS46 KMFR 221748
TAFMFR
TAF
KMFR 221748Z 2218/2318 29003KT P6SM -SHRA SCT020 OVC040
     FM222100 33009KT P6SM VCSH SCT035 OVC050
     FM230300 VRB03KT P6SM SCT015 OVC025=



000
FTUS46 KMFR 221701 AAB
TAFOTH
TAF AMD
KOTH 221701Z 2217/2312 34007KT P6SM OVC007
     FM222100 33012KT P6SM SCT015 OVC025
     FM230300 34005KT P6SM OVC006=



000
FTUS46 KMFR 221701 AAB
TAFOTH
TAF AMD
KOTH 221701Z 2217/2312 34007KT P6SM OVC007
     FM222100 33012KT P6SM SCT015 OVC025
     FM230300 34005KT P6SM OVC006=



000
FTUS46 KMFR 221647 AAB
TAFLMT
TAF AMD
KLMT 221647Z 2217/2312 28007KT P6SM -SHRA SCT010 BKN035 OVC050
     FM222000 30009KT P6SM VCSH BKN040 OVC080
     FM222300 32013G20KT P6SM -SHRA BKN040 OVC100
     FM230400 31006KT P6SM SCT040 OVC100=



000
FTUS46 KMFR 221647 AAB
TAFLMT
TAF AMD
KLMT 221647Z 2217/2312 28007KT P6SM -SHRA SCT010 BKN035 OVC050
     FM222000 30009KT P6SM VCSH BKN040 OVC080
     FM222300 32013G20KT P6SM -SHRA BKN040 OVC100
     FM230400 31006KT P6SM SCT040 OVC100=



000
FTUS46 KMFR 221538 AAA
TAFOTH
TAF AMD
KOTH 221538Z 2216/2312 01005KT P6SM BKN006 OVC022
     FM221700 33008KT P6SM OVC010
     FM222100 33012KT P6SM SCT015 OVC025
     FM230300 34005KT P6SM OVC006=



000
FTUS46 KMFR 221538 AAA
TAFOTH
TAF AMD
KOTH 221538Z 2216/2312 01005KT P6SM BKN006 OVC022
     FM221700 33008KT P6SM OVC010
     FM222100 33012KT P6SM SCT015 OVC025
     FM230300 34005KT P6SM OVC006=



000
FTUS46 KMFR 221410 AAA
TAFRBG
TAF AMD
KRBG 221410Z 2214/2312 34005KT P6SM OVC020
     FM222300 35006KT P6SM OVC035
     FM230500 35003KT P6SM OVC028=



000
FTUS46 KMFR 221409 AAB
TAFMFR
TAF AMD
KMFR 221409Z 2214/2312 29003KT P6SM VCSH OVC024
     FM221900 33007KT P6SM VCSH BKN040 OVC080
     FM230300 VRB03KT P6SM SCT015 OVC040=



000
FTUS46 KMFR 221407 AAA
TAFLMT
TAF AMD
KLMT 221407Z 2214/2312 00000KT P6SM -RA BKN017 OVC030
     FM222000 30009KT P6SM VCSH BKN040 OVC080
     FM222300 32013G20KT P6SM -SHRA BKN040 OVC100
     FM230400 31006KT P6SM SCT040 OVC100=



000
FTUS46 KMFR 221306 AAA
TAFMFR
TAF AMD
KMFR 221306Z 2213/2312 VRB03KT P6SM VCSH SCT012 OVC035
     FM221900 33007KT P6SM VCSH BKN040 OVC080
     FM230300 VRB03KT P6SM SCT015 OVC040=



000
FTUS46 KMFR 221148
TAFOTH
TAF
KOTH 221148Z 2212/2312 33005KT 5SM BR SCT004 OVC014
     FM221700 33008KT P6SM OVC010
     FM222100 33012KT P6SM SCT015 OVC025
     FM230300 34005KT P6SM OVC006=



000
FTUS46 KMFR 221148
TAFLMT
TAF
KLMT 221148Z 2212/2312 VRB03KT P6SM SCT028 OVC040
     FM222000 30009KT P6SM VCSH BKN040 OVC080
     FM222300 32013G20KT P6SM -SHRA BKN040 OVC100
     FM230400 31006KT P6SM SCT040 OVC100=



000
FTUS46 KMFR 221148
TAFMFR
TAF
KMFR 221148Z 2212/2312 VRB03KT P6SM VCSH BKN012 OVC040
     FM221900 33007KT P6SM VCSH BKN040 OVC080
     FM230300 VRB03KT P6SM SCT015 OVC040=



000
FTUS46 KMFR 221148
TAFOTH
TAF
KOTH 221148Z 2212/2312 33005KT 5SM BR SCT004 OVC014
     FM221700 33008KT P6SM OVC010
     FM222100 33012KT P6SM SCT015 OVC025
     FM230300 34005KT P6SM OVC006=



000
FTUS46 KMFR 221148
TAFLMT
TAF
KLMT 221148Z 2212/2312 VRB03KT P6SM SCT028 OVC040
     FM222000 30009KT P6SM VCSH BKN040 OVC080
     FM222300 32013G20KT P6SM -SHRA BKN040 OVC100
     FM230400 31006KT P6SM SCT040 OVC100=



000
FTUS46 KMFR 221148
TAFMFR
TAF
KMFR 221148Z 2212/2312 VRB03KT P6SM VCSH BKN012 OVC040
     FM221900 33007KT P6SM VCSH BKN040 OVC080
     FM230300 VRB03KT P6SM SCT015 OVC040=



000
FTUS46 KMFR 221148
TAFRBG
TAF
KRBG 221148Z 2212/2312 34006KT P6SM OVC015
     FM221900 VRB03KT P6SM OVC025
     FM222300 35006KT P6SM OVC035
     FM230500 35003KT P6SM OVC028=



000
FTUS46 KMFR 221148
TAFRBG
TAF
KRBG 221148Z 2212/2312 34006KT P6SM OVC015
     FM221900 VRB03KT P6SM OVC025
     FM222300 35006KT P6SM OVC035
     FM230500 35003KT P6SM OVC028=



000
FTUS46 KMFR 220541
TAFRBG
TAF
KRBG 220541Z 2206/2306 34005KT P6SM FEW017 OVC020
     FM220800 34006KT P6SM OVC012
     FM221900 VRB03KT P6SM OVC025
     FM222300 35006KT P6SM OVC035
     FM230500 35003KT P6SM OVC028=



000
FTUS46 KMFR 220541
TAFOTH
TAF
KOTH 220541Z 2206/2306 33005KT 5SM BR OVC004
     FM221600 34007KT P6SM OVC010
     FM221800 33009KT P6SM OVC012
     FM222100 33012KT P6SM OVC025
     FM230300 34005KT P6SM OVC005=



000
FTUS46 KMFR 220541
TAFLMT
TAF
KLMT 220541Z 2206/2306 28005KT P6SM SCT035 BKN060
     FM220800 VRB03KT P6SM SCT028 OVC040
     FM222000 30009KT P6SM VCSH BKN040 OVC080
     FM222300 32013G20KT P6SM -SHRA BKN040 OVC100=



000
FTUS46 KMFR 220541
TAFMFR
TAF
KMFR 220541Z 2206/2306 29004KT P6SM SCT026
      TEMPO 2206/2208 BKN026
     FM220800 VRB03KT P6SM VCSH OVC026
     FM221900 33007KT P6SM -SHRA BKN040 OVC080=



000
FTUS46 KMFR 220541
TAFOTH
TAF
KOTH 220541Z 2206/2306 33005KT 5SM BR OVC004
     FM221600 34007KT P6SM OVC010
     FM221800 33009KT P6SM OVC012
     FM222100 33012KT P6SM OVC025
     FM230300 34005KT P6SM OVC005=



000
FTUS46 KMFR 220541
TAFMFR
TAF
KMFR 220541Z 2206/2306 29004KT P6SM SCT026
      TEMPO 2206/2208 BKN026
     FM220800 VRB03KT P6SM VCSH OVC026
     FM221900 33007KT P6SM -SHRA BKN040 OVC080=



000
FTUS46 KMFR 220541
TAFRBG
TAF
KRBG 220541Z 2206/2306 34005KT P6SM FEW017 OVC020
     FM220800 34006KT P6SM OVC012
     FM221900 VRB03KT P6SM OVC025
     FM222300 35006KT P6SM OVC035
     FM230500 35003KT P6SM OVC028=



000
FTUS46 KMFR 220541
TAFLMT
TAF
KLMT 220541Z 2206/2306 28005KT P6SM SCT035 BKN060
     FM220800 VRB03KT P6SM SCT028 OVC040
     FM222000 30009KT P6SM VCSH BKN040 OVC080
     FM222300 32013G20KT P6SM -SHRA BKN040 OVC100=



000
FTUS46 KMFR 220319 AAA
TAFRBG
TAF AMD
KRBG 220319Z 2203/2224 36008KT P6SM VCSH BKN025 OVC035
     FM220600 36006KT P6SM FEW010 OVC020
     FM221700 VRB03KT P6SM OVC025
     FM222200 35006KT P6SM OVC035=



000
FTUS46 KMFR 220319 AAB
TAFOTH
TAF AMD
KOTH 220319Z 2203/2224 33005KT P6SM SCT007 OVC020
     FM220500 33005KT 5SM BR OVC005
     FM221600 34007KT P6SM OVC010
     FM221800 33009KT P6SM OVC012
     FM222100 33012KT P6SM OVC025=



000
FTUS46 KMFR 220319 AAB
TAFOTH
TAF AMD
KOTH 220319Z 2203/2224 33005KT P6SM SCT007 OVC020
     FM220500 33005KT 5SM BR OVC005
     FM221600 34007KT P6SM OVC010
     FM221800 33009KT P6SM OVC012
     FM222100 33012KT P6SM OVC025=



000
FTUS46 KMFR 220319 AAA
TAFRBG
TAF AMD
KRBG 220319Z 2203/2224 36008KT P6SM VCSH BKN025 OVC035
     FM220600 36006KT P6SM FEW010 OVC020
     FM221700 VRB03KT P6SM OVC025
     FM222200 35006KT P6SM OVC035=



000
FTUS46 KMFR 220201 AAA
TAFOTH
TAF AMD
KOTH 220201Z 2202/2224 33005KT P6SM BKN007 OVC020
     FM220500 33005KT 5SM BR OVC005
     FM221600 34007KT P6SM OVC010
     FM221800 33009KT P6SM OVC012
     FM222100 33012KT P6SM OVC025=



000
FTUS46 KMFR 212343
TAFRBG
TAF
KRBG 212343Z 2200/2224 36008KT P6SM VCSH FEW025 OVC035
     FM220600 36006KT P6SM FEW010 OVC020
     FM221700 VRB03KT P6SM OVC025
     FM222200 35006KT P6SM OVC035=



000
FTUS46 KMFR 212343
TAFOTH
TAF
KOTH 212343Z 2200/2224 30010KT P6SM BKN012 OVC035
     FM220200 33006KT 5SM BR OVC010
     FM221700 33009KT P6SM OVC012
     FM222100 33012KT P6SM OVC025=



000
FTUS46 KMFR 212343
TAFMFR
TAF
KMFR 212343Z 2200/2224 29008KT P6SM -SHRA BKN040 BKN070
     FM220600 VRB03KT P6SM BKN025 OVC035
     FM221800 30007KT P6SM BKN035=



000
FTUS46 KMFR 212343
TAFLMT
TAF
KLMT 212343Z 2200/2224 31008KT P6SM SCT060
     FM220600 VRB03KT P6SM BKN035
     FM222000 30009KT P6SM BKN040=



000
FTUS46 KMFR 212158 AAB
TAFMFR
TAF AMD
KMFR 212158Z 2122/2218 21010KT P6SM -TSRA BKN050CB BKN070
     FM212300 29008KT P6SM -SHRA VCTS BKN050CB BKN070
     FM220600 VRB03KT P6SM BKN025 OVC035=



000
FTUS46 KMFR 212158 AAB
TAFMFR
TAF AMD
KMFR 212158Z 2122/2218 21010KT P6SM -TSRA BKN050CB BKN070
     FM212300 29008KT P6SM -SHRA VCTS BKN050CB BKN070
     FM220600 VRB03KT P6SM BKN025 OVC035=



000
FTUS46 KMFR 212118 AAA
TAFOTH
TAF AMD
KOTH 212118Z 2121/2218 30008KT P6SM BKN009
     FM220300 33006KT 5SM BR OVC006=



000
FTUS46 KMFR 212118 AAA
TAFOTH
TAF AMD
KOTH 212118Z 2121/2218 30008KT P6SM BKN009
     FM220300 33006KT 5SM BR OVC006=



000
FTUS46 KMFR 212059 AAA
TAFRBG
TAF AMD
KRBG 212059Z 2121/2218 01008KT P6SM BKN030
     FM212200 36008KT P6SM VCSH FEW025 OVC035
     FM220600 VRB03KT P6SM OVC020=



000
FTUS46 KMFR 211746
TAFMFR
TAF
KMFR 211746Z 2118/2218 VRB03KT P6SM SCT015 OVC080
      TEMPO 2118/2120 BKN015
     FM212100 32008KT P6SM -SHRA VCTS SCT035 BKN080CB
     FM220600 VRB03KT P6SM BKN025 OVC035=



000
FTUS46 KMFR 211746
TAFRBG
TAF
KRBG 211746Z 2118/2218 VRB03KT P6SM BKN011 OVC020
     FM212200 35005KT P6SM VCSH SCT015 OVC035
     FM220600 VRB03KT P6SM OVC020=



000
FTUS46 KMFR 211746
TAFLMT
TAF
KLMT 211746Z 2118/2218 18004KT P6SM SCT015 BKN060
     FM212100 31008KT P6SM -SHRA VCTS BKN060CB BKN200
     FM220600 VRB03KT P6SM BKN035=



000
FTUS46 KMFR 211746
TAFOTH
TAF
KOTH 211746Z 2118/2218 32005KT P6SM BKN006 OVC016
     FM212100 33012KT P6SM SCT010 BKN020
     FM220300 33006KT 5SM BR OVC006=



000
FTUS46 KMFR 211527 AAA
TAFOTH
TAF AMD
KOTH 211527Z 2115/2212 34003KT P6SM SCT005 OVC016
      TEMPO 2115/2117 BKN005
     FM211800 32005KT P6SM SCT009 OVC015
     FM212000 33012KT P6SM BKN020
     FM220300 33006KT 5SM BR OVC006=



000
FTUS46 KMFR 211527 AAA
TAFOTH
TAF AMD
KOTH 211527Z 2115/2212 34003KT P6SM SCT005 OVC016
      TEMPO 2115/2117 BKN005
     FM211800 32005KT P6SM SCT009 OVC015
     FM212000 33012KT P6SM BKN020
     FM220300 33006KT 5SM BR OVC006=



000
FTUS46 KMFR 211526 AAA
TAFRBG
TAF AMD
KRBG 211526Z 2115/2212 VRB03KT P6SM SCT008 OVC025
      TEMPO 2115/2117 BKN008
     FM212200 35005KT P6SM VCSH SCT025 OVC035
     FM220600 VRB03KT P6SM OVC020=



000
FTUS46 KMFR 211526 AAA
TAFRBG
TAF AMD
KRBG 211526Z 2115/2212 VRB03KT P6SM SCT008 OVC025
      TEMPO 2115/2117 BKN008
     FM212200 35005KT P6SM VCSH SCT025 OVC035
     FM220600 VRB03KT P6SM OVC020=



000
FTUS46 KMFR 211340 AAA
TAFMFR
TAF AMD
KMFR 211340Z 2114/2212 00000KT P6SM BKN025 OVC050
     FM211600 VRB03KT P6SM SCT030 BKN060
     FM212100 32006KT P6SM VCSH SCT035 OVC060
     FM220600 VRB03KT P6SM BKN025 OVC035=



000
FTUS46 KMFR 211340 AAA
TAFMFR
TAF AMD
KMFR 211340Z 2114/2212 00000KT P6SM BKN025 OVC050
     FM211600 VRB03KT P6SM SCT030 BKN060
     FM212100 32006KT P6SM VCSH SCT035 OVC060
     FM220600 VRB03KT P6SM BKN025 OVC035=



000
FTUS46 KMFR 211140
TAFLMT
TAF
KLMT 211140Z 2112/2212 VRB03KT P6SM OVC050
     FM211600 18004KT P6SM BKN050 OVC080
     FM212100 31005KT P6SM VCSH OVC060
     FM220600 VRB03KT P6SM BKN035 OVC050=



000
FTUS46 KMFR 211140
TAFRBG
TAF
KRBG 211140Z 2112/2212 VRB03KT P6SM OVC025
     FM212200 35005KT P6SM VCSH SCT025 OVC035
     FM220600 VRB03KT P6SM OVC020=



000
FTUS46 KMFR 211140
TAFOTH
TAF
KOTH 211140Z 2112/2212 34003KT 5SM BR OVC005
     FM211800 32005KT P6SM SCT009 OVC015
     FM212000 33012KT P6SM BKN020
     FM220300 33006KT 5SM BR OVC006=



000
FTUS46 KMFR 211140
TAFMFR
TAF
KMFR 211140Z 2112/2212 VRB03KT P6SM OVC035
     FM212100 32006KT P6SM VCSH SCT035 OVC050
     FM220600 VRB03KT P6SM BKN025 OVC035=



000
FTUS46 KMFR 211140
TAFOTH
TAF
KOTH 211140Z 2112/2212 34003KT 5SM BR OVC005
     FM211800 32005KT P6SM SCT009 OVC015
     FM212000 33012KT P6SM BKN020
     FM220300 33006KT 5SM BR OVC006=



000
FTUS46 KMFR 211140
TAFRBG
TAF
KRBG 211140Z 2112/2212 VRB03KT P6SM OVC025
     FM212200 35005KT P6SM VCSH SCT025 OVC035
     FM220600 VRB03KT P6SM OVC020=



000
FTUS46 KMFR 211140
TAFMFR
TAF
KMFR 211140Z 2112/2212 VRB03KT P6SM OVC035
     FM212100 32006KT P6SM VCSH SCT035 OVC050
     FM220600 VRB03KT P6SM BKN025 OVC035=



000
FTUS46 KMFR 211140
TAFLMT
TAF
KLMT 211140Z 2112/2212 VRB03KT P6SM OVC050
     FM211600 18004KT P6SM BKN050 OVC080
     FM212100 31005KT P6SM VCSH OVC060
     FM220600 VRB03KT P6SM BKN035 OVC050=



000
FTUS46 KMFR 210541
TAFOTH
TAF
KOTH 210541Z 2106/2206 35009KT P6SM OVC005
     FM210700 32005KT 4SM BR OVC002
     FM211800 32005KT 5SM BR SCT009 OVC015
     FM212000 33010KT P6SM BKN025 OVC040=



000
FTUS46 KMFR 210541
TAFOTH
TAF
KOTH 210541Z 2106/2206 35009KT P6SM OVC005
     FM210700 32005KT 4SM BR OVC002
     FM211800 32005KT 5SM BR SCT009 OVC015
     FM212000 33010KT P6SM BKN025 OVC040=



000
FTUS46 KMFR 210541
TAFRBG
TAF
KRBG 210541Z 2106/2206 VRB03KT P6SM FEW020 OVC035
     FM211100 35003KT P6SM VCSH OVC015
     FM212000 35005KT P6SM OVC025=



000
FTUS46 KMFR 210541
TAFMFR
TAF
KMFR 210541Z 2106/2206 VRB04KT P6SM -SHRA BKN027 OVC040
     FM211000 VRB02KT P6SM SCT008 OVC023
     FM211500 33003KT P6SM SCT030 OVC040=



000
FTUS46 KMFR 210541
TAFLMT
TAF
KLMT 210541Z 2106/2206 VRB02KT P6SM SCT015 OVC030
      TEMPO 2106/2107 14009G15KT 5SM -RA BR SCT007 OVC015
     FM211200 VRB02KT P6SM BKN015 OVC050
     FM211600 18004KT P6SM BKN050 OVC100
     FM212100 31005KT P6SM VCSH BKN060=



000
FTUS46 KMFR 210541
TAFMFR
TAF
KMFR 210541Z 2106/2206 VRB04KT P6SM -SHRA BKN027 OVC040
     FM211000 VRB02KT P6SM SCT008 OVC023
     FM211500 33003KT P6SM SCT030 OVC040=



000
FTUS46 KMFR 210541
TAFRBG
TAF
KRBG 210541Z 2106/2206 VRB03KT P6SM FEW020 OVC035
     FM211100 35003KT P6SM VCSH OVC015
     FM212000 35005KT P6SM OVC025=



000
FTUS46 KMFR 210541
TAFLMT
TAF
KLMT 210541Z 2106/2206 VRB02KT P6SM SCT015 OVC030
      TEMPO 2106/2107 14009G15KT 5SM -RA BR SCT007 OVC015
     FM211200 VRB02KT P6SM BKN015 OVC050
     FM211600 18004KT P6SM BKN050 OVC100
     FM212100 31005KT P6SM VCSH BKN060=



000
FTUS46 KMFR 210343 AAA
TAFRBG
TAF AMD
KRBG 210343Z 2104/2124 VRB03KT P6SM -SHRA FEW020 OVC035
     FM210600 35003KT P6SM -SHRA BKN015 OVC030
     FM212100 35005KT P6SM OVC035=



000
FTUS46 KMFR 210342 AAB
TAFOTH
TAF AMD
KOTH 210342Z 2104/2124 35009KT 5SM BR OVC007
     FM210600 32005KT 4SM -SHRA BR BKN005 OVC010
     FM211500 32005KT P6SM VCSH SCT009 OVC015
     FM211800 33010KT P6SM BKN025 OVC040=



000
FTUS46 KMFR 210258 AAA
TAFLMT
TAF AMD
KLMT 210258Z 2103/2124 VRB04KT P6SM -SHRA SCT035 BKN060
     FM210700 VRB02KT P6SM FEW015 SCT035 BKN060
     FM211200 VRB02KT P6SM BKN015 OVC050
     FM211600 18004KT P6SM SCT050 BKN100
     FM212300 31005KT P6SM BKN060 BKN100=



000
FTUS46 KMFR 210258 AAA
TAFLMT
TAF AMD
KLMT 210258Z 2103/2124 VRB04KT P6SM -SHRA SCT035 BKN060
     FM210700 VRB02KT P6SM FEW015 SCT035 BKN060
     FM211200 VRB02KT P6SM BKN015 OVC050
     FM211600 18004KT P6SM SCT050 BKN100
     FM212300 31005KT P6SM BKN060 BKN100=



000
FTUS46 KMFR 210258 AAB
TAFMFR
TAF AMD
KMFR 210258Z 2103/2124 VRB04KT P6SM -SHRA BKN035 BKN070
     FM210600 VRB03KT P6SM -SHRA OVC030
     FM211300 33003KT P6SM BKN040 OVC060=



000
FTUS46 KMFR 210258 AAB
TAFMFR
TAF AMD
KMFR 210258Z 2103/2124 VRB04KT P6SM -SHRA BKN035 BKN070
     FM210600 VRB03KT P6SM -SHRA OVC030
     FM211300 33003KT P6SM BKN040 OVC060=



000
FTUS46 KMFR 210006 AAA
TAFOTH
TAF AMD
KOTH 210006Z 2100/2124 34014G22KT P6SM BKN007 OVC030
     FM210200 35009KT P6SM BKN007 OVC012
     FM210600 32005KT 4SM -SHRA BR BKN005 OVC010
     FM211500 32005KT P6SM VCSH SCT009 OVC015
     FM211800 33010KT P6SM BKN025 OVC040=



000
FTUS46 KMFR 210006 AAA
TAFOTH
TAF AMD
KOTH 210006Z 2100/2124 34014G22KT P6SM BKN007 OVC030
     FM210200 35009KT P6SM BKN007 OVC012
     FM210600 32005KT 4SM -SHRA BR BKN005 OVC010
     FM211500 32005KT P6SM VCSH SCT009 OVC015
     FM211800 33010KT P6SM BKN025 OVC040=



000
FTUS46 KMFR 202340
TAFOTH
TAF
KOTH 202340Z 2100/2124 34014G22KT P6SM OVC030
     FM210200 35009KT P6SM OVC009
     FM210600 32005KT 4SM -SHRA BR BKN005 OVC010
     FM211500 32005KT P6SM VCSH SCT009 OVC015
     FM211800 33010KT P6SM BKN025 OVC040=



000
FTUS46 KMFR 202340
TAFOTH
TAF
KOTH 202340Z 2100/2124 34014G22KT P6SM OVC030
     FM210200 35009KT P6SM OVC009
     FM210600 32005KT 4SM -SHRA BR BKN005 OVC010
     FM211500 32005KT P6SM VCSH SCT009 OVC015
     FM211800 33010KT P6SM BKN025 OVC040=



000
FTUS46 KMFR 202340
TAFRBG
TAF
KRBG 202340Z 2100/2124 02006KT P6SM VCSH SCT025 BKN035
     FM210300 35006KT P6SM -SHRA OVC030
     FM210600 35003KT P6SM -SHRA BKN015 OVC030
     FM212100 35005KT P6SM OVC035=



000
FTUS46 KMFR 202340
TAFMFR
TAF
KMFR 202340Z 2100/2124 32005KT P6SM -SHRA BKN040 BKN070
     FM210200 33005KT P6SM -SHRA VCTS OVC035CB
     FM210400 30003KT P6SM -SHRA OVC030
     FM211300 VRB03KT P6SM BKN040 OVC060=



000
FTUS46 KMFR 202340
TAFLMT
TAF
KLMT 202340Z 2100/2124 25005KT P6SM VCSH BKN035
     FM210300 18005KT P6SM -SHRA OVC030
     FM210700 VRB02KT P6SM FEW015 SCT035 BKN060
     FM211200 VRB02KT P6SM BKN015 OVC050
     FM211600 VRB04KT P6SM SCT060 BKN100=



000
FTUS46 KMFR 202340
TAFMFR
TAF
KMFR 202340Z 2100/2124 32005KT P6SM -SHRA BKN040 BKN070
     FM210200 33005KT P6SM -SHRA VCTS OVC035CB
     FM210400 30003KT P6SM -SHRA OVC030
     FM211300 VRB03KT P6SM BKN040 OVC060=



000
FTUS46 KMFR 202340
TAFRBG
TAF
KRBG 202340Z 2100/2124 02006KT P6SM VCSH SCT025 BKN035
     FM210300 35006KT P6SM -SHRA OVC030
     FM210600 35003KT P6SM -SHRA BKN015 OVC030
     FM212100 35005KT P6SM OVC035=



000
FTUS46 KMFR 202340
TAFLMT
TAF
KLMT 202340Z 2100/2124 25005KT P6SM VCSH BKN035
     FM210300 18005KT P6SM -SHRA OVC030
     FM210700 VRB02KT P6SM FEW015 SCT035 BKN060
     FM211200 VRB02KT P6SM BKN015 OVC050
     FM211600 VRB04KT P6SM SCT060 BKN100=



000
FTUS46 KMFR 201905 AAA
TAFRBG
TAF AMD
KRBG 201905Z 2019/2118 36003KT P6SM BKN025 OVC040
     FM202200 35005KT P6SM SCT025 OVC040
     FM210100 35006KT P6SM -SHRA OVC025
     FM210800 35003KT P6SM -SHRA OVC015=



000
FTUS46 KMFR 201903 AAB
TAFMFR
TAF AMD
KMFR 201903Z 2019/2118 31003KT P6SM -SHRA SCT020 BKN050 OVC080
      TEMPO 2019/2021 BKN020
     FM202100 33003KT P6SM -SHRA BKN035 OVC050
     FM202300 32005KT P6SM VCTS BKN040CB
     FM210100 31005KT P6SM -TSRA OVC040CB
     FM210400 30003KT P6SM -SHRA OVC030
     FM211200 VRB03KT P6SM BKN040 OVC060=



000
FTUS46 KMFR 201859 AAA
TAFOTH
TAF AMD
KOTH 201859Z 2019/2118 34010KT P6SM FEW012 OVC035
     FM202000 34015G22KT P6SM OVC035
     FM210200 35008KT P6SM OVC008
     FM210600 32005KT 4SM -SHRA BR BKN005 OVC010=



000
FTUS46 KMFR 201859 AAA
TAFOTH
TAF AMD
KOTH 201859Z 2019/2118 34010KT P6SM FEW012 OVC035
     FM202000 34015G22KT P6SM OVC035
     FM210200 35008KT P6SM OVC008
     FM210600 32005KT 4SM -SHRA BR BKN005 OVC010=



000
FTUS46 KMFR 201739
TAFRBG
TAF
KRBG 201739Z 2018/2118 35003KT P6SM OVC020
     FM201900 36003KT P6SM SCT020 OVC040
     FM210100 35006KT P6SM -SHRA OVC025
     FM210800 35003KT P6SM -SHRA OVC015=



000
FTUS46 KMFR 201739
TAFOTH
TAF
KOTH 201739Z 2018/2118 34010KT P6SM BKN008 OVC025
     FM201900 34015G22KT P6SM BKN025 OVC035
     FM210200 35008KT P6SM OVC008
     FM210600 32005KT 4SM -SHRA BR OVC005=



000
FTUS46 KMFR 201739
TAFLMT
TAF
KLMT 201739Z 2018/2118 VRB04KT P6SM -SHRA OVC040
     FM202300 17007KT P6SM -TSRA BKN035CB
     FM210300 18005KT P6SM -SHRA OVC030
     FM211200 15003KT P6SM BKN035 OVC060=



000
FTUS46 KMFR 201739
TAFMFR
TAF
KMFR 201739Z 2018/2118 31003KT P6SM -SHRA SCT020 OVC080
     FM202100 33003KT P6SM -SHRA BKN035 OVC050
     FM202300 32005KT P6SM VCTS BKN040CB
     FM210100 31005KT P6SM -TSRA OVC040CB
     FM210400 30003KT P6SM -SHRA OVC030
     FM211200 VRB03KT P6SM BKN040 OVC060=



000
FTUS46 KMFR 201339 AAA
TAFLMT
TAF AMD
KLMT 201339Z 2014/2112 00000KT P6SM BKN007 OVC015
     FM201600 00000KT P6SM BKN015 OVC040
     FM201800 VRB04KT P6SM -SHRA BKN025 BKN050
     FM202100 17007KT P6SM -SHRA BKN035 OVC050=



000
FTUS46 KMFR 201140
TAFLMT
TAF
KLMT 201140Z 2012/2112 VRB03KT P6SM BKN020 OVC040
     FM201800 VRB04KT P6SM -SHRA BKN025 BKN050
     FM202100 25007KT P6SM -SHRA BKN035 BKN050=



000
FTUS46 KMFR 201140
TAFRBG
TAF
KRBG 201140Z 2012/2112 35003KT P6SM BKN020 OVC040
     FM201900 36003KT P6SM SCT020 OVC040
     FM210100 35006KT P6SM -SHRA OVC025=



000
FTUS46 KMFR 201140
TAFOTH
TAF
KOTH 201140Z 2012/2112 01005KT P6SM OVC012
     FM201600 33010KT P6SM OVC020
     FM201900 34015G22KT P6SM BKN025 OVC035
     FM210200 35008KT 4SM BR OVC007=



000
FTUS46 KMFR 201140
TAFMFR
TAF
KMFR 201140Z 2012/2112 31003KT P6SM OVC035
     FM202100 33003KT P6SM -SHRA BKN035 OVC050=



000
FTUS46 KMFR 201140
TAFOTH
TAF
KOTH 201140Z 2012/2112 01005KT P6SM OVC012
     FM201600 33010KT P6SM OVC020
     FM201900 34015G22KT P6SM BKN025 OVC035
     FM210200 35008KT 4SM BR OVC007=



000
FTUS46 KMFR 201140
TAFLMT
TAF
KLMT 201140Z 2012/2112 VRB03KT P6SM BKN020 OVC040
     FM201800 VRB04KT P6SM -SHRA BKN025 BKN050
     FM202100 25007KT P6SM -SHRA BKN035 BKN050=



000
FTUS46 KMFR 201140
TAFRBG
TAF
KRBG 201140Z 2012/2112 35003KT P6SM BKN020 OVC040
     FM201900 36003KT P6SM SCT020 OVC040
     FM210100 35006KT P6SM -SHRA OVC025=



000
FTUS46 KMFR 201140
TAFMFR
TAF
KMFR 201140Z 2012/2112 31003KT P6SM OVC035
     FM202100 33003KT P6SM -SHRA BKN035 OVC050=



000
FTUS46 KMFR 200543
TAFLMT
TAF
KLMT 200543Z 2006/2106 34010KT P6SM -SHRA BKN035 OVC050
     FM201000 VRB03KT 5SM -SHRA BR BKN015 OVC040
     FM201700 VRB04KT P6SM -SHRA BKN025 BKN050
     FM202100 25007KT P6SM -SHRA BKN035 BKN050=



000
FTUS46 KMFR 200543
TAFRBG
TAF
KRBG 200543Z 2006/2106 03005KT P6SM SCT025 BKN050
      TEMPO 2006/2007 BKN025
     FM200700 35003KT P6SM BKN025 OVC035
     FM201900 36003KT P6SM -SHRA SCT020 OVC040
     FM210100 35006KT P6SM OVC025=



000
FTUS46 KMFR 200543
TAFMFR
TAF
KMFR 200543Z 2006/2106 02004KT P6SM BKN040
     FM201200 31003KT P6SM VCSH BKN025 OVC040
     FM201800 33003KT P6SM -SHRA BKN035 OVC050=



000
FTUS46 KMFR 200543
TAFOTH
TAF
KOTH 200543Z 2006/2106 35006KT P6SM OVC015
      TEMPO 2006/2007 SCT020 BKN050
     FM201000 35005KT P6SM OVC008
     FM201500 33010KT P6SM SCT010 BKN020
     FM201900 34014G20KT P6SM SCT020 OVC030
     FM210200 35008KT 4SM BR OVC007=



    US Dept of Commerce
    National Oceanic and Atmospheric Administration
    National Weather Service
    1325 East West Highway
    Silver Spring, MD 20910
    Page Author: NWS Internet Services Team
Disclaimer
Information Quality
Credits
Glossary
Privacy Policy
Freedom of Information Act (FOIA)
About Us
Career Opportunities